Impacts TAF Board INFO
FOR SITUATIONAL AWARENESS. NOT TO BE USED FOR FLIGHT PLANNING PURPOSES.
IDs:

KSTL - St Louis/Lambert Int, MO, US

Issued at 0257 UTC 17 Jul 2018
Updated at 0344 UTC 17 Jul 2018
Potential Impact None Slight Moderate High
Time<<17/16Z 17/17Z 17/18Z 17/19Z 17/20Z 17/21Z 17/22Z 17/23Z 18/00Z 18/01Z 18/02Z 18/03Z 18/04Z>>
Type PRVL PRVL PRVL PRVL PRVL PRVL PRVL PRVL PRVL PRVL PRVL PRVL PRVL
VIS >6 >6 >6 >6 >6 >6 >6 >6 >6 >6 >6 >6 >6
CIG -- -- -- -- -- -- -- -- -- -- -- -- --
Cover SCT SCT SCT SCT SCT SCT SCT SCT SCT SCT SCT SCT SCT
FltCat VFR VFR VFR VFR VFR VFR VFR VFR VFR VFR VFR VFR VFR
WX -- -- -- -- -- -- -- -- -- -- -- -- --
WDir 50 50 50 50 50 50 50 50 50 50 50 50 50
WSpd 7 7 7 7 7 7 7 7 7 7 7 7 7
WGst -- -- -- -- -- -- -- -- -- -- -- -- --

Raw TAF
KSTL 170257Z 1703/1806 VRB04KT P6SM FEW050 SCT250
  FM171500 05007KT P6SM FEW050 SCT120


METAR Board
Radar Display
Forecast Discussion

FOR SITUATIONAL AWARENESS. NOT TO BE USED FOR FLIGHT PLANNING PURPOSES.